sensor_id;sensor_type;location;lat;lon;timestamp;pressure;altitude;pressure_sealevel;temperature;humidity
36502;BME280;25393;46.108;3.390;2023-01-25T00:01:03;99356.78;;;2.42;100.00
36502;BME280;25393;46.108;3.390;2023-01-25T00:03:33;99360.44;;;2.53;100.00
36502;BME280;25393;46.108;3.390;2023-01-25T00:06:03;99351.59;;;2.56;100.00
36502;BME280;25393;46.108;3.390;2023-01-25T00:08:29;99337.25;;;2.47;100.00
36502;BME280;25393;46.108;3.390;2023-01-25T00:10:58;99347.09;;;2.58;100.00
36502;BME280;25393;46.108;3.390;2023-01-25T00:13:25;99346.97;;;2.45;100.00
36502;BME280;25393;46.108;3.390;2023-01-25T00:15:52;99340.41;;;2.38;100.00
36502;BME280;25393;46.108;3.390;2023-01-25T00:18:18;99337.78;;;2.38;100.00
36502;BME280;25393;46.108;3.390;2023-01-25T00:20:45;99324.19;;;2.32;100.00
36502;BME280;25393;46.108;3.390;2023-01-25T00:23:11;99334.56;;;2.33;100.00
36502;BME280;25393;46.108;3.390;2023-01-25T00:25:38;99327.38;;;2.37;100.00
36502;BME280;25393;46.108;3.390;2023-01-25T00:28:04;99331.34;;;2.44;100.00
36502;BME280;25393;46.108;3.390;2023-01-25T00:30:31;99340.72;;;2.48;100.00
36502;BME280;25393;46.108;3.390;2023-01-25T00:33:06;99328.06;;;2.40;100.00
36502;BME280;25393;46.108;3.390;2023-01-25T00:35:47;99342.72;;;2.43;100.00
36502;BME280;25393;46.108;3.390;2023-01-25T00:38:27;99332.88;;;2.32;100.00
36502;BME280;25393;46.108;3.390;2023-01-25T00:40:56;99340.13;;;2.43;100.00
36502;BME280;25393;46.108;3.390;2023-01-25T00:43:23;99326.03;;;2.45;100.00
36502;BME280;25393;46.108;3.390;2023-01-25T00:45:49;99316.56;;;2.43;100.00
36502;BME280;25393;46.108;3.390;2023-01-25T00:48:16;99313.06;;;2.28;100.00
36502;BME280;25393;46.108;3.390;2023-01-25T00:50:43;99330.66;;;2.40;100.00
36502;BME280;25393;46.108;3.390;2023-01-25T00:53:09;99322.94;;;2.39;100.00
36502;BME280;25393;46.108;3.390;2023-01-25T00:55:36;99333.16;;;2.58;100.00
36502;BME280;25393;46.108;3.390;2023-01-25T00:58:02;99332.44;;;2.56;100.00
36502;BME280;25393;46.108;3.390;2023-01-25T01:00:31;99323.06;;;2.51;100.00
36502;BME280;25393;46.108;3.390;2023-01-25T01:02:57;99315.88;;;2.39;100.00
36502;BME280;25393;46.108;3.390;2023-01-25T01:05:24;99326.03;;;2.45;100.00
36502;BME280;25393;46.108;3.390;2023-01-25T01:07:54;99307.06;;;2.26;100.00
36502;BME280;25393;46.108;3.390;2023-01-25T01:10:21;99327.50;;;2.35;100.00
36502;BME280;25393;46.108;3.390;2023-01-25T01:12:47;99316.06;;;2.36;100.00
36502;BME280;25393;46.108;3.390;2023-01-25T01:15:14;99320.13;;;2.42;100.00
36502;BME280;25393;46.108;3.390;2023-01-25T01:17:40;99317.16;;;2.32;100.00
36502;BME280;25393;46.108;3.390;2023-01-25T01:20:07;99321.06;;;2.41;100.00
36502;BME280;25393;46.108;3.390;2023-01-25T01:22:37;99309.69;;;2.26;100.00
36502;BME280;25393;46.108;3.390;2023-01-25T01:25:04;99314.16;;;2.24;100.00
36502;BME280;25393;46.108;3.390;2023-01-25T01:27:36;99315.81;;;2.25;100.00
36502;BME280;25393;46.108;3.390;2023-01-25T01:30:03;99327.31;;;2.38;100.00
36502;BME280;25393;46.108;3.390;2023-01-25T01:32:30;99321.13;;;2.39;100.00
36502;BME280;25393;46.108;3.390;2023-01-25T01:34:56;99325.63;;;2.37;100.00
36502;BME280;25393;46.108;3.390;2023-01-25T01:37:23;99329.94;;;2.38;100.00
36502;BME280;25393;46.108;3.390;2023-01-25T01:39:50;99317.84;;;2.36;100.00
36502;BME280;25393;46.108;3.390;2023-01-25T01:42:17;99298.53;;;2.23;100.00
36502;BME280;25393;46.108;3.390;2023-01-25T01:49:52;99317.94;;;2.34;100.00
36502;BME280;25393;46.108;3.390;2023-01-25T01:52:24;99323.69;;;2.25;100.00
36502;BME280;25393;46.108;3.390;2023-01-25T01:55:06;99316.00;;;2.22;100.00
36502;BME280;25393;46.108;3.390;2023-01-25T01:57:43;99312.13;;;2.29;100.00
36502;BME280;25393;46.108;3.390;2023-01-25T02:00:20;99328.16;;;2.39;100.00
36502;BME280;25393;46.108;3.390;2023-01-25T02:02:49;99306.22;;;2.26;100.00
36502;BME280;25393;46.108;3.390;2023-01-25T02:05:21;99312.22;;;2.28;100.00
36502;BME280;25393;46.108;3.390;2023-01-25T02:07:52;99310.66;;;2.39;100.00
36502;BME280;25393;46.108;3.390;2023-01-25T02:10:20;99323.19;;;2.34;100.00
36502;BME280;25393;46.108;3.390;2023-01-25T02:12:48;99317.94;;;2.34;100.00
36502;BME280;25393;46.108;3.390;2023-01-25T02:15:14;99302.91;;;2.22;100.00
36502;BME280;25393;46.108;3.390;2023-01-25T02:17:41;99302.59;;;2.28;100.00
36502;BME280;25393;46.108;3.390;2023-01-25T02:25:37;99308.22;;;2.36;100.00
36502;BME280;25393;46.108;3.390;2023-01-25T02:28:14;99302.59;;;2.28;100.00
36502;BME280;25393;46.108;3.390;2023-01-25T02:30:44;99281.00;;;2.25;100.00
36502;BME280;25393;46.108;3.390;2023-01-25T02:33:11;99274.56;;;2.30;100.00
36502;BME280;25393;46.108;3.390;2023-01-25T02:35:39;99286.72;;;2.31;100.00
36502;BME280;25393;46.108;3.390;2023-01-25T02:38:08;99291.00;;;2.32;100.00
36502;BME280;25393;46.108;3.390;2023-01-25T02:41:05;99282.78;;;2.24;100.00
36502;BME280;25393;46.108;3.390;2023-01-25T02:43:34;99272.97;;;2.12;100.00
36502;BME280;25393;46.108;3.390;2023-01-25T02:46:22;99279.66;;;2.18;100.00
36502;BME280;25393;46.108;3.390;2023-01-25T02:48:51;99279.66;;;2.18;100.00
36502;BME280;25393;46.108;3.390;2023-01-25T02:51:18;99268.25;;;2.19;100.00
36502;BME280;25393;46.108;3.390;2023-01-25T02:53:44;99270.19;;;2.15;100.00
36502;BME280;25393;46.108;3.390;2023-01-25T02:56:11;99272.31;;;2.09;100.00
36502;BME280;25393;46.108;3.390;2023-01-25T02:58:37;99256.06;;;2.04;100.00
36502;BME280;25393;46.108;3.390;2023-01-25T03:01:04;99270.00;;;2.18;100.00
36502;BME280;25393;46.108;3.390;2023-01-25T03:03:31;99264.03;;;2.16;100.00
36502;BME280;25393;46.108;3.390;2023-01-25T03:05:57;99260.25;;;2.06;100.00
36502;BME280;25393;46.108;3.390;2023-01-25T03:08:23;99261.50;;;2.15;100.00
36502;BME280;25393;46.108;3.390;2023-01-25T03:10:50;99234.63;;;1.97;100.00
36502;BME280;25393;46.108;3.390;2023-01-25T03:13:17;99246.44;;;2.04;100.00
36502;BME280;25393;46.108;3.390;2023-01-25T03:15:43;99256.94;;;2.18;100.00
36502;BME280;25393;46.108;3.390;2023-01-25T03:18:10;99260.00;;;2.40;100.00
36502;BME280;25393;46.108;3.390;2023-01-25T03:20:39;99261.72;;;2.26;100.00
36502;BME280;25393;46.108;3.390;2023-01-25T03:23:05;99249.38;;;2.14;100.00
36502;BME280;25393;46.108;3.390;2023-01-25T03:25:32;99247.75;;;2.11;100.00
36502;BME280;25393;46.108;3.390;2023-01-25T03:27:58;99253.75;;;2.13;100.00
36502;BME280;25393;46.108;3.390;2023-01-25T03:30:25;99242.94;;;2.19;100.00
36502;BME280;25393;46.108;3.390;2023-01-25T03:32:51;99253.94;;;2.40;100.00
36502;BME280;25393;46.108;3.390;2023-01-25T03:35:18;99248.22;;;2.33;100.00
36502;BME280;25393;46.108;3.390;2023-01-25T03:37:44;99246.69;;;2.29;100.00
36502;BME280;25393;46.108;3.390;2023-01-25T03:40:12;99245.78;;;2.15;100.00
36502;BME280;25393;46.108;3.390;2023-01-25T03:42:42;99230.28;;;2.12;100.00
36502;BME280;25393;46.108;3.390;2023-01-25T03:45:15;99244.38;;;2.09;100.00
36502;BME280;25393;46.108;3.390;2023-01-25T03:47:41;99246.13;;;2.24;100.00
36502;BME280;25393;46.108;3.390;2023-01-25T03:50:10;99244.44;;;2.23;100.00
36502;BME280;25393;46.108;3.390;2023-01-25T03:52:39;99250.34;;;2.27;100.00
36502;BME280;25393;46.108;3.390;2023-01-25T03:55:09;99252.06;;;2.12;100.00
36502;BME280;25393;46.108;3.390;2023-01-25T03:57:37;99242.97;;;1.88;100.00
36502;BME280;25393;46.108;3.390;2023-01-25T04:00:03;99244.91;;;1.84;100.00
36502;BME280;25393;46.108;3.390;2023-01-25T04:02:30;99243.66;;;1.91;100.00
36502;BME280;25393;46.108;3.390;2023-01-25T04:04:57;99244.97;;;2.14;100.00
36502;BME280;25393;46.108;3.390;2023-01-25T04:07:23;99241.28;;;2.03;100.00
36502;BME280;25393;46.108;3.390;2023-01-25T04:09:50;99232.28;;;1.92;100.00
36502;BME280;25393;46.108;3.390;2023-01-25T04:12:17;99230.00;;;1.86;100.00
36502;BME280;25393;46.108;3.390;2023-01-25T04:14:46;99239.50;;;1.87;100.00
36502;BME280;25393;46.108;3.390;2023-01-25T04:17:14;99221.22;;;1.87;100.00
36502;BME280;25393;46.108;3.390;2023-01-25T04:19:47;99225.16;;;1.94;100.00
36502;BME280;25393;46.108;3.390;2023-01-25T04:22:14;99208.88;;;2.05;100.00
36502;BME280;25393;46.108;3.390;2023-01-25T04:24:47;99214.75;;;2.09;100.00
36502;BME280;25393;46.108;3.390;2023-01-25T04:27:18;99202.91;;;2.03;100.00
36502;BME280;25393;46.108;3.390;2023-01-25T04:29:45;99206.53;;;2.00;100.00
36502;BME280;25393;46.108;3.390;2023-01-25T04:32:12;99205.34;;;2.06;100.00
36502;BME280;25393;46.108;3.390;2023-01-25T04:34:39;99213.25;;;2.05;100.00
36502;BME280;25393;46.108;3.390;2023-01-25T04:37:05;99220.53;;;1.99;100.00
36502;BME280;25393;46.108;3.390;2023-01-25T04:39:32;99206.31;;;1.89;100.00
36502;BME280;25393;46.108;3.390;2023-01-25T04:41:58;99195.06;;;1.87;100.00
36502;BME280;25393;46.108;3.390;2023-01-25T04:44:25;99205.19;;;1.93;100.00
36502;BME280;25393;46.108;3.390;2023-01-25T04:46:51;99206.19;;;1.91;100.00
36502;BME280;25393;46.108;3.390;2023-01-25T04:49:18;99212.50;;;2.03;100.00
36502;BME280;25393;46.108;3.390;2023-01-25T04:51:44;99217.66;;;2.04;100.00
36502;BME280;25393;46.108;3.390;2023-01-25T04:54:13;99222.25;;;2.15;100.00
36502;BME280;25393;46.108;3.390;2023-01-25T04:56:39;99222.84;;;2.20;100.00
36502;BME280;25393;46.108;3.390;2023-01-25T04:59:06;99216.53;;;2.08;100.00
36502;BME280;25393;46.108;3.390;2023-01-25T05:01:32;99217.66;;;2.04;100.00
36502;BME280;25393;46.108;3.390;2023-01-25T05:03:59;99200.72;;;1.95;100.00
36502;BME280;25393;46.108;3.390;2023-01-25T05:06:25;99203.25;;;1.97;100.00
36502;BME280;25393;46.108;3.390;2023-01-25T05:08:52;99204.84;;;1.99;100.00
36502;BME280;25393;46.108;3.390;2023-01-25T05:11:18;99212.50;;;2.03;100.00
36502;BME280;25393;46.108;3.390;2023-01-25T05:13:45;99207.28;;;2.03;100.00
36502;BME280;25393;46.108;3.390;2023-01-25T05:16:11;99198.75;;;1.99;100.00
36502;BME280;25393;46.108;3.390;2023-01-25T05:18:38;99201.47;;;1.97;100.00
36502;BME280;25393;46.108;3.390;2023-01-25T05:21:14;99191.94;;;1.96;100.00
36502;BME280;25393;46.108;3.390;2023-01-25T05:23:59;99200.53;;;1.98;100.00
36502;BME280;25393;46.108;3.390;2023-01-25T05:26:26;99194.81;;;1.92;100.00
36502;BME280;25393;46.108;3.390;2023-01-25T05:29:11;99183.63;;;1.90;100.00
36502;BME280;25393;46.108;3.390;2023-01-25T05:31:37;99200.28;;;1.87;100.00
36502;BME280;25393;46.108;3.390;2023-01-25T05:34:04;99195.84;;;1.89;100.00
36502;BME280;25393;46.108;3.390;2023-01-25T05:36:30;99201.31;;;1.85;100.00
36502;BME280;25393;46.108;3.390;2023-01-25T05:38:57;99206.19;;;1.91;100.00
36502;BME280;25393;46.108;3.390;2023-01-25T05:41:23;99202.03;;;2.32;100.00
36502;BME280;25393;46.108;3.390;2023-01-25T05:43:50;99185.16;;;2.08;100.00
36502;BME280;25393;46.108;3.390;2023-01-25T05:46:16;99196.47;;;2.09;100.00
36502;BME280;25393;46.108;3.390;2023-01-25T05:48:46;99199.25;;;2.06;100.00
36502;BME280;25393;46.108;3.390;2023-01-25T05:51:18;99206.19;;;2.07;100.00
36502;BME280;25393;46.108;3.390;2023-01-25T05:53:53;99196.47;;;2.09;100.00
36502;BME280;25393;46.108;3.390;2023-01-25T05:56:21;99190.66;;;2.04;100.00
36502;BME280;25393;46.108;3.390;2023-01-25T05:58:54;99205.16;;;2.09;100.00
36502;BME280;25393;46.108;3.390;2023-01-25T06:01:22;99200.84;;;2.08;100.00
36502;BME280;25393;46.108;3.390;2023-01-25T06:03:53;99211.72;;;2.16;100.00
36502;BME280;25393;46.108;3.390;2023-01-25T06:06:21;99204.91;;;2.14;100.00
36502;BME280;25393;46.108;3.390;2023-01-25T06:08:52;99201.63;;;2.10;100.00
36502;BME280;25393;46.108;3.390;2023-01-25T06:11:22;99201.47;;;1.97;100.00
36502;BME280;25393;46.108;3.390;2023-01-25T06:13:50;99201.75;;;1.93;100.00
36502;BME280;25393;46.108;3.390;2023-01-25T06:16:18;99218.41;;;2.06;100.00
36502;BME280;25393;46.108;3.390;2023-01-25T06:18:46;99214.75;;;2.09;100.00
36502;BME280;25393;46.108;3.390;2023-01-25T06:21:16;99211.31;;;2.08;100.00
36502;BME280;25393;46.108;3.390;2023-01-25T06:23:42;99185.09;;;1.94;100.00
36502;BME280;25393;46.108;3.390;2023-01-25T06:26:12;99193.28;;;2.04;100.00
36502;BME280;25393;46.108;3.390;2023-01-25T06:28:42;99147.25;;;1.85;100.00
36502;BME280;25393;46.108;3.390;2023-01-25T06:31:15;99151.66;;;1.85;100.00
36502;BME280;25393;46.108;3.390;2023-01-25T06:33:43;99205.41;;;2.05;100.00
36502;BME280;25393;46.108;3.390;2023-01-25T06:36:14;99198.41;;;2.05;100.00
36502;BME280;25393;46.108;3.390;2023-01-25T06:38:41;99194.38;;;1.99;100.00
36502;BME280;25393;46.108;3.390;2023-01-25T06:41:10;99187.22;;;2.03;100.00
36502;BME280;25393;46.108;3.390;2023-01-25T06:43:38;99199.84;;;2.11;100.00
36502;BME280;25393;46.108;3.390;2023-01-25T06:46:07;99200.19;;;2.05;100.00
36502;BME280;25393;46.108;3.390;2023-01-25T06:48:34;99192.03;;;1.95;100.00
36502;BME280;25393;46.108;3.390;2023-01-25T06:51:06;99219.94;;;2.10;100.00
36502;BME280;25393;46.108;3.390;2023-01-25T06:53:36;99203.63;;;2.05;100.00
36502;BME280;25393;46.108;3.390;2023-01-25T06:56:16;99212.06;;;2.10;100.00
36502;BME280;25393;46.108;3.390;2023-01-25T06:58:44;99221.34;;;2.16;100.00
36502;BME280;25393;46.108;3.390;2023-01-25T07:01:13;99217.63;;;2.20;100.00
36502;BME280;25393;46.108;3.390;2023-01-25T07:03:41;99219.34;;;2.05;100.00
36502;BME280;25393;46.108;3.390;2023-01-25T07:06:09;99221.50;;;2.13;99.40
36502;BME280;25393;46.108;3.390;2023-01-25T07:08:36;99214.09;;;2.05;100.00
36502;BME280;25393;46.108;3.390;2023-01-25T07:11:05;99230.09;;;2.15;100.00
36502;BME280;25393;46.108;3.390;2023-01-25T07:13:35;99228.25;;;2.17;100.00
36502;BME280;25393;46.108;3.390;2023-01-25T07:16:04;99234.81;;;2.24;100.00
36502;BME280;25393;46.108;3.390;2023-01-25T07:18:32;99218.97;;;2.11;100.00
36502;BME280;25393;46.108;3.390;2023-01-25T07:21:07;99229.66;;;2.22;100.00
36502;BME280;25393;46.108;3.390;2023-01-25T07:23:35;99232.28;;;2.22;100.00
36502;BME280;25393;46.108;3.390;2023-01-25T07:26:04;99216.22;;;2.14;100.00
36502;BME280;25393;46.108;3.390;2023-01-25T07:28:32;99237.19;;;2.28;100.00
36502;BME280;25393;46.108;3.390;2023-01-25T07:31:05;99222.41;;;2.27;100.00
36502;BME280;25393;46.108;3.390;2023-01-25T07:33:33;99226.88;;;2.25;100.00
36502;BME280;25393;46.108;3.390;2023-01-25T07:36:01;99241.03;;;2.37;100.00
36502;BME280;25393;46.108;3.390;2023-01-25T07:38:28;99235.72;;;2.38;100.00
36502;BME280;25393;46.108;3.390;2023-01-25T07:40:55;99242.81;;;2.36;100.00
36502;BME280;25393;46.108;3.390;2023-01-25T07:43:22;99236.38;;;2.42;100.00
36502;BME280;25393;46.108;3.390;2023-01-25T07:45:51;99234.94;;;2.36;100.00
36502;BME280;25393;46.108;3.390;2023-01-25T07:48:22;99232.44;;;2.35;100.00
36502;BME280;25393;46.108;3.390;2023-01-25T07:50:57;99232.34;;;2.36;99.75
36502;BME280;25393;46.108;3.390;2023-01-25T07:53:41;99226.44;;;2.33;99.90
36502;BME280;25393;46.108;3.390;2023-01-25T07:56:10;99223.06;;;2.31;99.98
36502;BME280;25393;46.108;3.390;2023-01-25T07:58:37;99213.53;;;2.30;100.00
36502;BME280;25393;46.108;3.390;2023-01-25T08:01:14;99214.00;;;2.36;100.00
36502;BME280;25393;46.108;3.390;2023-01-25T08:03:42;99205.91;;;2.41;99.99
36502;BME280;25393;46.108;3.390;2023-01-25T08:06:11;99197.31;;;2.39;99.68
36502;BME280;25393;46.108;3.390;2023-01-25T08:08:41;99197.56;;;2.34;99.56
36502;BME280;25393;46.108;3.390;2023-01-25T08:13:40;99193.25;;;2.33;99.33
36502;BME280;25393;46.108;3.390;2023-01-25T08:16:06;99182.91;;;2.32;99.54
36502;BME280;25393;46.108;3.390;2023-01-25T08:18:33;99190.91;;;2.29;99.40
36502;BME280;25393;46.108;3.390;2023-01-25T08:21:02;99189.91;;;2.31;99.99
36502;BME280;25393;46.108;3.390;2023-01-25T08:23:29;99198.50;;;2.33;100.00
36502;BME280;25393;46.108;3.390;2023-01-25T08:26:03;99196.47;;;2.38;100.00
36502;BME280;25393;46.108;3.390;2023-01-25T08:28:31;99185.16;;;2.38;100.00
36502;BME280;25393;46.108;3.390;2023-01-25T08:31:12;99175.78;;;2.34;100.00
36502;BME280;25393;46.108;3.390;2023-01-25T08:33:39;99177.56;;;2.33;100.00
36502;BME280;25393;46.108;3.390;2023-01-25T08:36:08;99167.06;;;2.19;100.00
36502;BME280;25393;46.108;3.390;2023-01-25T08:38:36;99172.88;;;2.24;100.00
36502;BME280;25393;46.108;3.390;2023-01-25T08:41:11;99157.94;;;2.26;100.00
36502;BME280;25393;46.108;3.390;2023-01-25T08:43:39;99169.50;;;2.22;100.00
36502;BME280;25393;46.108;3.390;2023-01-25T08:46:05;99173.63;;;2.26;99.75
36502;BME280;25393;46.108;3.390;2023-01-25T08:48:32;99173.63;;;2.26;99.10
36502;BME280;25393;46.108;3.390;2023-01-25T08:50:59;99175.13;;;2.30;98.80
36502;BME280;25393;46.108;3.390;2023-01-25T08:53:27;99176.91;;;2.30;97.94
36502;BME280;25393;46.108;3.390;2023-01-25T08:55:54;99175.78;;;2.34;97.77
36502;BME280;25393;46.108;3.390;2023-01-25T08:58:21;99174.41;;;2.28;98.02
36502;BME280;25393;46.108;3.390;2023-01-25T09:00:48;99175.13;;;2.30;96.89
36502;BME280;25393;46.108;3.390;2023-01-25T09:03:17;99169.94;;;2.15;97.88
36502;BME280;25393;46.108;3.390;2023-01-25T09:05:46;99168.50;;;2.25;97.72
36502;BME280;25393;46.108;3.390;2023-01-25T09:08:13;99165.22;;;2.21;97.75
36502;BME280;25393;46.108;3.390;2023-01-25T09:10:39;99187.09;;;2.34;98.04
36502;BME280;25393;46.108;3.390;2023-01-25T09:13:06;99156.06;;;2.28;98.68
36502;BME280;25393;46.108;3.390;2023-01-25T09:15:34;99172.72;;;2.41;98.38
36502;BME280;25393;46.108;3.390;2023-01-25T09:18:00;99166.19;;;2.48;98.82
36502;BME280;25393;46.108;3.390;2023-01-25T09:20:27;99147.59;;;2.39;98.65
36502;BME280;25393;46.108;3.390;2023-01-25T09:22:58;99146.63;;;2.40;99.42
36502;BME280;25393;46.108;3.390;2023-01-25T09:25:24;99148.63;;;2.50;98.65
36502;BME280;25393;46.108;3.390;2023-01-25T09:27:51;99136.66;;;2.46;98.11
36502;BME280;25393;46.108;3.390;2023-01-25T09:30:22;99112.41;;;2.29;98.21
36502;BME280;25393;46.108;3.390;2023-01-25T09:33:06;99144.34;;;2.49;97.88
36502;BME280;25393;46.108;3.390;2023-01-25T09:35:32;99153.50;;;2.57;97.28
36502;BME280;25393;46.108;3.390;2023-01-25T09:38:00;99135.63;;;2.49;97.27
36502;BME280;25393;46.108;3.390;2023-01-25T09:40:32;99158.91;;;2.53;97.10
36502;BME280;25393;46.108;3.390;2023-01-25T09:43:12;99162.84;;;2.61;97.77
36502;BME280;25393;46.108;3.390;2023-01-25T09:45:41;99146.00;;;2.50;97.83
36502;BME280;25393;46.108;3.390;2023-01-25T09:51:09;99162.09;;;2.59;98.80
36502;BME280;25393;46.108;3.390;2023-01-25T09:53:45;99156.59;;;2.63;98.08
36502;BME280;25393;46.108;3.390;2023-01-25T09:56:26;99160.53;;;2.70;98.03
36502;BME280;25393;46.108;3.390;2023-01-25T09:58:58;99157.59;;;2.75;98.09
36502;BME280;25393;46.108;3.390;2023-01-25T10:04:25;99147.44;;;2.56;97.94
36502;BME280;25393;46.108;3.390;2023-01-25T10:06:56;99122.63;;;2.47;97.96
36502;BME280;25393;46.108;3.390;2023-01-25T10:09:41;99142.53;;;2.50;97.97
36502;BME280;25393;46.108;3.390;2023-01-25T10:12:21;99145.28;;;2.63;98.75
36502;BME280;25393;46.108;3.390;2023-01-25T10:14:50;99132.38;;;2.60;98.91
36502;BME280;25393;46.108;3.390;2023-01-25T10:17:29;99156.13;;;2.71;98.62
36502;BME280;25393;46.108;3.390;2023-01-25T10:20:23;99163.34;;;2.67;99.52
36502;BME280;25393;46.108;3.390;2023-01-25T10:25:58;99132.66;;;2.69;98.24
36502;BME280;25393;46.108;3.390;2023-01-25T10:31:28;99131.41;;;2.75;97.89
36502;BME280;25393;46.108;3.390;2023-01-25T10:33:51;99130.13;;;2.68;98.68
36502;BME280;25393;46.108;3.390;2023-01-25T10:36:26;99138.47;;;2.74;99.07
36502;BME280;25393;46.108;3.390;2023-01-25T10:38:55;99128.25;;;2.70;99.25
36502;BME280;25393;46.108;3.390;2023-01-25T10:43:57;99142.19;;;2.84;100.00
36502;BME280;25393;46.108;3.390;2023-01-25T10:49:41;99136.19;;;2.96;99.89
36502;BME280;25393;46.108;3.390;2023-01-25T10:52:22;99137.03;;;2.97;99.84
36502;BME280;25393;46.108;3.390;2023-01-25T10:57:42;99131.41;;;2.89;99.98
36502;BME280;25393;46.108;3.390;2023-01-25T11:00:26;99126.19;;;2.89;100.00
36502;BME280;25393;46.108;3.390;2023-01-25T11:02:56;99118.91;;;2.80;100.00
36502;BME280;25393;46.108;3.390;2023-01-25T11:07:54;99128.25;;;2.84;100.00
36502;BME280;25393;46.108;3.390;2023-01-25T11:10:32;99127.88;;;2.90;100.00
36502;BME280;25393;46.108;3.390;2023-01-25T11:15:41;99112.16;;;2.90;100.00
36502;BME280;25393;46.108;3.390;2023-01-25T11:18:32;99118.81;;;2.95;100.00
36502;BME280;25393;46.108;3.390;2023-01-25T11:23:37;99101.16;;;2.85;100.00
36502;BME280;25393;46.108;3.390;2023-01-25T11:28:42;99102.25;;;2.95;100.00
36502;BME280;25393;46.108;3.390;2023-01-25T11:31:23;99097.03;;;2.81;100.00
36502;BME280;25393;46.108;3.390;2023-01-25T11:33:50;99101.31;;;2.82;100.00
36502;BME280;25393;46.108;3.390;2023-01-25T11:36:41;99100.84;;;2.89;100.00
36502;BME280;25393;46.108;3.390;2023-01-25T11:39:39;99096.06;;;2.96;100.00
36502;BME280;25393;46.108;3.390;2023-01-25T11:44:45;99089.72;;;2.86;100.00
36502;BME280;25393;46.108;3.390;2023-01-25T11:47:40;99081.97;;;2.84;100.00
36502;BME280;25393;46.108;3.390;2023-01-25T11:50:26;99062.13;;;2.80;100.00
36502;BME280;25393;46.108;3.390;2023-01-25T11:53:33;99058.03;;;2.76;100.00
36502;BME280;25393;46.108;3.390;2023-01-25T11:59:04;99050.34;;;2.87;100.00
36502;BME280;25393;46.108;3.390;2023-01-25T12:07:21;99036.78;;;2.95;100.00
36502;BME280;25393;46.108;3.390;2023-01-25T12:10:03;99031.53;;;2.95;100.00
36502;BME280;25393;46.108;3.390;2023-01-25T12:29:45;99003.94;;;2.89;100.00
36502;BME280;25393;46.108;3.390;2023-01-25T12:35:20;98988.22;;;2.89;100.00
36502;BME280;25393;46.108;3.390;2023-01-25T12:37:54;98984.03;;;2.87;100.00
36502;BME280;25393;46.108;3.390;2023-01-25T12:43:32;98981.63;;;2.84;100.00
36502;BME280;25393;46.108;3.390;2023-01-25T12:46:09;98970.38;;;2.82;100.00
36502;BME280;25393;46.108;3.390;2023-01-25T12:48:43;98968.88;;;2.92;100.00
36502;BME280;25393;46.108;3.390;2023-01-25T12:51:14;98959.34;;;2.91;100.00
36502;BME280;25393;46.108;3.390;2023-01-25T12:53:52;98959.34;;;2.91;100.00
36502;BME280;25393;46.108;3.390;2023-01-25T12:56:40;98970.44;;;2.94;100.00
36502;BME280;25393;46.108;3.390;2023-01-25T12:59:32;98952.66;;;2.73;100.00
36502;BME280;25393;46.108;3.390;2023-01-25T13:07:52;98945.84;;;2.70;100.00
36502;BME280;25393;46.108;3.390;2023-01-25T13:10:43;98945.34;;;2.78;100.00
36502;BME280;25393;46.108;3.390;2023-01-25T13:13:18;98953.75;;;2.83;100.00
36502;BME280;25393;46.108;3.390;2023-01-25T13:15:47;98933.44;;;2.86;100.00
36502;BME280;25393;46.108;3.390;2023-01-25T13:20:54;98941.16;;;3.02;100.00
36502;BME280;25393;46.108;3.390;2023-01-25T13:23:41;98944.56;;;2.90;100.00
36502;BME280;25393;46.108;3.390;2023-01-25T13:28:50;98929.09;;;2.73;100.00
36502;BME280;25393;46.108;3.390;2023-01-25T13:37:16;98940.66;;;2.83;100.00
36502;BME280;25393;46.108;3.390;2023-01-25T13:39:45;98929.66;;;2.78;100.00
36502;BME280;25393;46.108;3.390;2023-01-25T13:44:44;98937.63;;;2.89;100.00
36502;BME280;25393;46.108;3.390;2023-01-25T13:47:20;98910.91;;;2.84;100.00
36502;BME280;25393;46.108;3.390;2023-01-25T13:52:35;98916.59;;;2.90;100.00
36502;BME280;25393;46.108;3.390;2023-01-25T13:55:16;98888.13;;;2.72;100.00
36502;BME280;25393;46.108;3.390;2023-01-25T13:57:42;98908.19;;;2.85;100.00
36502;BME280;25393;46.108;3.390;2023-01-25T14:00:14;98922.81;;;3.02;100.00
36502;BME280;25393;46.108;3.390;2023-01-25T14:02:44;98906.75;;;2.94;100.00
36502;BME280;25393;46.108;3.390;2023-01-25T14:05:27;98910.94;;;2.96;100.00
36502;BME280;25393;46.108;3.390;2023-01-25T14:07:56;98882.16;;;2.70;100.00
36502;BME280;25393;46.108;3.390;2023-01-25T14:10:25;98900.72;;;2.79;100.00
36502;BME280;25393;46.108;3.390;2023-01-25T14:12:59;98910.31;;;2.93;100.00
36502;BME280;25393;46.108;3.390;2023-01-25T14:15:27;98898.91;;;2.94;100.00
36502;BME280;25393;46.108;3.390;2023-01-25T14:20:29;98891.88;;;2.94;100.00
36502;BME280;25393;46.108;3.390;2023-01-25T14:22:56;98892.72;;;2.95;100.00
36502;BME280;25393;46.108;3.390;2023-01-25T14:25:26;98902.16;;;2.97;100.00
36502;BME280;25393;46.108;3.390;2023-01-25T14:27:55;98907.31;;;3.12;100.00
36502;BME280;25393;46.108;3.390;2023-01-25T14:30:25;98897.34;;;3.17;100.00
36502;BME280;25393;46.108;3.390;2023-01-25T14:32:56;98885.00;;;3.06;100.00
36502;BME280;25393;46.108;3.390;2023-01-25T14:35:33;98899.25;;;3.15;100.00
36502;BME280;25393;46.108;3.390;2023-01-25T14:38:35;98901.16;;;3.13;100.00
36502;BME280;25393;46.108;3.390;2023-01-25T14:41:15;98889.50;;;3.04;100.00
36502;BME280;25393;46.108;3.390;2023-01-25T14:43:46;98883.91;;;2.96;100.00
36502;BME280;25393;46.108;3.390;2023-01-25T14:46:27;98897.22;;;2.93;100.00
36502;BME280;25393;46.108;3.390;2023-01-25T14:54:21;98896.53;;;2.77;100.00
36502;BME280;25393;46.108;3.390;2023-01-25T14:56:51;98893.78;;;2.66;100.00
36502;BME280;25393;46.108;3.390;2023-01-25T14:59:40;98892.44;;;2.73;100.00
36502;BME280;25393;46.108;3.390;2023-01-25T15:02:22;98871.06;;;2.66;100.00
36502;BME280;25393;46.108;3.390;2023-01-25T15:05:23;98885.63;;;2.70;100.00
36502;BME280;25393;46.108;3.390;2023-01-25T15:10:34;98873.97;;;2.62;100.00
36502;BME280;25393;46.108;3.390;2023-01-25T15:15:59;98877.97;;;2.67;100.00